Time;durP1;ratioP1;P1;durP2;ratioP2;P2;SDS_P1;SDS_P2;PMS_P1;PMS_P2;Temp;Humidity;BMP_temperature;BMP_pressure;BME280_temperature;BME280_humidity;BME280_pressure;Samples;Min_cycle;Max_cycle;Signal;HPM_P1;HPM_P2
2023/05/21 00:02:30;;;;;;;19.50;7.10;;;;;;;11.22;81.49;100810.80;105535;1254;73095;-71
2023/05/21 00:05:20;;;;;;;16.90;6.30;;;;;;;11.21;81.48;100811.79;105496;1262;67656;-71
2023/05/21 00:08:08;;;;;;;17.80;6.70;;;;;;;11.19;81.67;100813.49;105727;1254;71316;-72
2023/05/21 00:10:57;;;;;;;13.90;5.70;;;;;;;11.16;81.79;100812.10;105453;1255;59679;-72
2023/05/21 00:13:45;;;;;;;15.70;6.40;;;;;;;11.14;81.95;100808.88;105361;1259;60433;-72
2023/05/21 00:16:33;;;;;;;14.50;5.70;;;;;;;11.12;82.50;100805.66;105307;1258;71488;-71
2023/05/21 00:19:21;;;;;;;13.10;5.80;;;;;;;11.09;82.39;100804.23;105327;1260;67917;-73
2023/05/21 00:22:11;;;;;;;14.00;6.40;;;;;;;11.07;82.62;100804.04;105811;1262;72782;-72
2023/05/21 00:24:59;;;;;;;18.00;6.50;;;;;;;11.06;82.57;100804.94;106239;1258;59541;-71
2023/05/21 00:27:48;;;;;;;13.80;5.80;;;;;;;11.05;82.66;100807.55;106912;1258;60067;-70
2023/05/21 00:30:36;;;;;;;12.70;6.00;;;;;;;11.03;83.03;100807.48;106413;1258;73088;-70
2023/05/21 00:33:28;;;;;;;15.90;5.40;;;;;;;11.01;83.02;100807.96;106914;1259;66356;-71
2023/05/21 00:36:16;;;;;;;13.80;5.90;;;;;;;10.95;83.24;100807.85;105918;1262;72478;-69
2023/05/21 00:39:05;;;;;;;14.10;5.70;;;;;;;10.89;83.22;100806.23;105660;1264;59614;-73
2023/05/21 00:41:55;;;;;;;12.80;5.80;;;;;;;10.85;83.76;100809.55;105524;1263;59558;-73
2023/05/21 00:44:45;;;;;;;15.40;5.90;;;;;;;10.82;84.38;100810.81;105551;1256;71902;-73
2023/05/21 00:47:34;;;;;;;11.10;5.20;;;;;;;10.81;84.33;100809.80;105642;1254;66796;-72
2023/05/21 00:50:24;;;;;;;11.80;5.50;;;;;;;10.80;84.94;100811.86;105808;1254;71597;-72
2023/05/21 00:53:14;;;;;;;12.10;5.70;;;;;;;10.79;84.87;100812.29;105651;1259;59680;-72
2023/05/21 00:56:03;;;;;;;12.40;5.40;;;;;;;10.78;85.24;100812.17;105659;1254;60432;-73
2023/05/21 00:58:55;;;;;;;12.10;5.30;;;;;;;10.77;85.13;100816.81;105882;1260;73202;-73
2023/05/21 01:01:44;;;;;;;11.10;5.40;;;;;;;10.75;85.28;100816.13;106162;1254;67138;-74
2023/05/21 01:04:33;;;;;;;13.50;5.70;;;;;;;10.72;85.07;100816.98;106235;1260;73620;-73
2023/05/21 01:07:21;;;;;;;13.30;6.00;;;;;;;10.68;85.44;100812.62;106420;1254;59817;-75
2023/05/21 01:10:10;;;;;;;12.70;5.50;;;;;;;10.67;85.72;100813.80;106161;1254;59638;-73
2023/05/21 01:12:59;;;;;;;11.10;5.20;;;;;;;10.64;85.76;100809.68;105561;1254;73082;-73
2023/05/21 01:15:49;;;;;;;12.20;5.20;;;;;;;10.62;85.85;100804.71;105536;1254;66317;-74
2023/05/21 01:18:38;;;;;;;11.70;5.70;;;;;;;10.60;86.08;100804.48;105796;1258;72569;-71
2023/05/21 01:21:29;;;;;;;11.70;5.90;;;;;;;10.59;86.34;100804.92;105527;1256;59645;-72
2023/05/21 01:24:18;;;;;;;11.60;5.30;;;;;;;10.56;86.22;100808.82;105538;1259;59713;-71
2023/05/21 01:27:09;;;;;;;12.70;5.40;;;;;;;10.53;86.59;100809.69;105585;1254;73061;-72
2023/05/21 01:29:59;;;;;;;11.00;5.80;;;;;;;10.51;86.72;100808.98;105592;1259;68875;-72
2023/05/21 01:32:57;;;;;;;12.30;6.20;;;;;;;10.47;87.10;100809.20;105626;1254;71459;-72
2023/05/21 01:36:28;;;;;;;14.30;6.20;;;;;;;10.45;87.84;100806.14;105581;1258;59488;-73
2023/05/21 01:39:26;;;;;;;13.70;5.80;;;;;;;10.45;88.57;100803.33;105644;1256;60201;-72
2023/05/21 01:42:17;;;;;;;11.60;5.90;;;;;;;10.44;89.37;100805.36;105521;1255;73207;-72
2023/05/21 01:45:08;;;;;;;14.30;6.40;;;;;;;10.43;89.40;100806.80;105540;1259;66659;-72
2023/05/21 01:47:57;;;;;;;14.10;6.20;;;;;;;10.44;89.67;100806.58;105519;1255;72701;-72
2023/05/21 01:50:46;;;;;;;13.80;6.80;;;;;;;10.44;89.94;100806.23;105757;1257;61042;-71
2023/05/21 01:53:37;;;;;;;13.20;6.30;;;;;;;10.46;90.02;100807.48;105624;1263;60440;-72
2023/05/21 01:56:27;;;;;;;13.40;6.60;;;;;;;10.47;90.39;100806.55;105736;1256;73088;-71
2023/05/21 01:59:17;;;;;;;13.10;6.30;;;;;;;10.47;89.85;100807.29;105273;1257;68508;-71
2023/05/21 02:02:05;;;;;;;13.20;6.40;;;;;;;10.48;90.46;100808.81;105363;1264;72631;-71
2023/05/21 02:04:54;;;;;;;12.30;6.50;;;;;;;10.46;90.86;100804.67;105351;1255;59723;-70
2023/05/21 02:07:45;;;;;;;12.80;6.70;;;;;;;10.45;90.77;100805.45;105220;1256;59632;-69
2023/05/21 02:10:35;;;;;;;13.20;6.40;;;;;;;10.43;90.63;100807.70;105446;1256;72604;-70
2023/05/21 02:13:23;;;;;;;15.40;6.80;;;;;;;10.43;90.97;100808.60;105466;1255;66318;-70
2023/05/21 02:16:14;;;;;;;12.10;6.70;;;;;;;10.41;91.01;100809.09;105443;1259;72558;-70
2023/05/21 02:19:05;;;;;;;12.00;6.60;;;;;;;10.40;91.23;100810.76;105396;1256;59733;-69
2023/05/21 02:21:54;;;;;;;14.00;7.20;;;;;;;10.40;90.90;100811.09;105472;1259;59735;-70
2023/05/21 02:24:42;;;;;;;14.90;6.50;;;;;;;10.42;91.46;100811.73;105482;1259;74132;-70
2023/05/21 02:27:33;;;;;;;17.00;6.90;;;;;;;10.43;91.73;100803.67;105380;1258;66712;-69
2023/05/21 02:30:22;;;;;;;12.90;7.20;;;;;;;10.43;91.85;100808.99;105477;1255;71335;-71
2023/05/21 02:33:13;;;;;;;15.70;7.10;;;;;;;10.41;91.46;100809.59;105436;1256;59647;-70
2023/05/21 02:36:01;;;;;;;14.50;7.20;;;;;;;10.41;91.40;100808.60;105534;1259;60701;-70
2023/05/21 02:38:50;;;;;;;13.30;6.50;;;;;;;10.40;91.53;100810.04;105535;1259;73184;-70
2023/05/21 02:41:38;;;;;;;11.60;6.70;;;;;;;10.41;91.76;100804.15;105481;1256;67985;-71
2023/05/21 02:44:26;;;;;;;14.20;6.00;;;;;;;10.42;91.79;100804.05;105564;1255;72788;-71
2023/05/21 02:47:14;;;;;;;11.80;6.40;;;;;;;10.43;92.02;100802.37;105626;1258;59618;-73
2023/05/21 02:50:08;;;;;;;12.50;6.90;;;;;;;10.46;92.56;100801.50;105693;1255;60206;-71
2023/05/21 02:53:03;;;;;;;12.70;6.40;;;;;;;10.47;92.38;100799.83;105727;1256;73786;-70
2023/05/21 02:55:51;;;;;;;13.00;6.70;;;;;;;10.47;92.46;100799.11;105355;1256;68078;-71
2023/05/21 02:58:40;;;;;;;12.70;6.50;;;;;;;10.48;92.54;100794.46;105373;1258;73264;-71
2023/05/21 03:01:28;;;;;;;14.50;7.00;;;;;;;10.50;92.94;100799.42;105532;1262;59611;-71
2023/05/21 03:04:17;;;;;;;16.00;6.60;;;;;;;10.52;92.74;100797.74;105490;1256;60407;-70
2023/05/21 03:07:05;;;;;;;12.90;6.80;;;;;;;10.53;92.84;100799.94;105713;1260;73219;-71
2023/05/21 03:09:53;;;;;;;14.00;6.10;;;;;;;10.57;92.73;100796.86;105976;1256;68358;-74
2023/05/21 03:12:41;;;;;;;12.80;6.30;;;;;;;10.61;92.87;100796.04;105732;1256;71342;-76
2023/05/21 03:15:32;;;;;;;12.30;6.60;;;;;;;10.68;92.89;100792.23;105565;1254;59641;-73
2023/05/21 03:18:23;;;;;;;11.80;6.10;;;;;;;10.77;92.80;100788.13;105508;1256;59574;-75
2023/05/21 03:21:14;;;;;;;10.70;6.30;;;;;;;10.87;92.44;100788.32;105619;1258;73029;-79
2023/05/21 03:24:06;;;;;;;12.50;6.30;;;;;;;11.00;92.69;100785.10;105762;1256;66728;-74
2023/05/21 03:26:56;;;;;;;11.00;6.50;;;;;;;11.18;92.56;100786.02;107368;1254;71304;-73
2023/05/21 03:29:44;;;;;;;13.00;6.70;;;;;;;11.37;92.16;100786.14;107174;1261;59637;-77
2023/05/21 03:32:36;;;;;;;11.30;6.00;;;;;;;11.58;91.71;100781.84;107108;1254;60409;-75
2023/05/21 03:35:26;;;;;;;12.60;6.50;;;;;;;11.79;90.80;100783.55;106770;1254;73116;-74
2023/05/21 03:38:15;;;;;;;12.40;5.60;;;;;;;12.02;89.77;100779.69;106079;1254;66307;-77
2023/05/21 03:41:03;;;;;;;10.00;5.60;;;;;;;12.23;88.56;100775.59;105890;1253;72409;-75
2023/05/21 03:43:52;;;;;;;12.40;5.50;;;;;;;12.47;87.07;100776.85;106206;1253;59533;-78
2023/05/21 03:46:44;;;;;;;9.60;5.20;;;;;;;12.73;85.46;100778.36;106016;1254;60710;-73
2023/05/21 03:49:42;;;;;;;11.00;5.20;;;;;;;12.97;84.19;100772.61;105928;1254;72754;-75
2023/05/21 03:52:30;;;;;;;12.90;5.70;;;;;;;13.19;82.84;100770.06;105856;1259;67875;-76
2023/05/21 03:55:18;;;;;;;10.70;5.20;;;;;;;13.32;82.33;100764.83;105715;1260;72586;-77
2023/05/21 03:58:06;;;;;;;11.70;6.40;;;;;;;13.43;81.93;100772.30;105695;1257;59740;-75
2023/05/21 04:00:55;;;;;;;11.10;5.80;;;;;;;13.45;81.62;100772.30;105774;1259;59542;-73
2023/05/21 04:03:44;;;;;;;11.10;6.50;;;;;;;13.49;81.72;100775.93;105601;1254;72965;-76
2023/05/21 04:06:34;;;;;;;13.30;6.10;;;;;;;13.53;81.60;100771.68;105767;1254;67063;-78
2023/05/21 04:09:24;;;;;;;12.90;6.40;;;;;;;13.59;81.47;100778.50;105645;1259;72501;-75
2023/05/21 04:12:21;;;;;;;14.30;6.10;;;;;;;13.68;81.21;100777.48;105980;1263;59644;-77
2023/05/21 04:15:10;;;;;;;12.20;6.20;;;;;;;13.76;80.96;100778.11;106235;1253;60157;-74
2023/05/21 04:17:59;;;;;;;12.00;5.90;;;;;;;13.85;80.63;100778.63;105862;1257;71763;-75
2023/05/21 04:20:48;;;;;;;12.40;5.80;;;;;;;13.92;80.26;100775.37;105807;1260;66986;-75
2023/05/21 04:23:38;;;;;;;10.90;5.90;;;;;;;14.02;79.88;100772.83;105661;1262;72688;-74
2023/05/21 04:26:34;;;;;;;11.20;5.60;;;;;;;14.14;79.40;100767.40;105837;1259;59532;-75
2023/05/21 04:29:24;;;;;;;10.90;5.30;;;;;;;14.26;78.90;100764.77;105916;1262;61311;-76
2023/05/21 04:32:16;;;;;;;11.70;5.60;;;;;;;14.40;78.40;100765.05;105859;1254;72179;-76
2023/05/21 04:35:05;;;;;;;10.90;5.10;;;;;;;14.57;77.36;100762.24;105680;1253;67900;-75
2023/05/21 04:37:54;;;;;;;9.80;4.60;;;;;;;14.77;76.25;100763.83;105901;1258;71121;-74
2023/05/21 04:40:42;;;;;;;8.90;4.60;;;;;;;15.01;75.11;100759.84;105690;1254;59495;-73
2023/05/21 04:43:31;;;;;;;11.60;4.90;;;;;;;15.30;74.13;100756.82;105739;1254;59639;-74
2023/05/21 04:46:24;;;;;;;8.70;4.60;;;;;;;15.67;72.62;100755.38;106008;1254;72032;-77
2023/05/21 04:49:13;;;;;;;9.90;4.70;;;;;;;16.16;70.45;100758.73;105604;1254;67472;-74
2023/05/21 04:52:01;;;;;;;11.00;4.60;;;;;;;16.84;68.49;100755.66;105751;1253;72761;-76
2023/05/21 04:54:50;;;;;;;8.80;4.70;;;;;;;17.58;65.55;100750.41;105916;1254;59786;-76
2023/05/21 04:57:38;;;;;;;11.50;4.50;;;;;;;18.28;61.69;100751.73;105957;1254;59614;-74
2023/05/21 05:00:28;;;;;;;8.90;3.80;;;;;;;18.77;60.50;100757.27;105845;1254;72973;-75
2023/05/21 05:03:17;;;;;;;9.30;4.20;;;;;;;18.95;59.85;100755.80;105643;1253;67148;-74
2023/05/21 05:06:07;;;;;;;8.90;4.40;;;;;;;19.15;58.49;100751.63;105880;1253;72394;-74
2023/05/21 05:08:55;;;;;;;9.10;4.30;;;;;;;19.57;58.03;100755.87;105733;1254;59716;-76
2023/05/21 05:11:45;;;;;;;7.70;3.40;;;;;;;20.03;55.38;100749.52;105803;1253;60423;-74
2023/05/21 05:14:34;;;;;;;8.70;4.10;;;;;;;20.67;52.66;100750.84;105703;1263;73132;-74
2023/05/21 05:17:23;;;;;;;9.50;3.80;;;;;;;21.51;50.10;100746.95;105420;1259;67711;-75
2023/05/21 05:20:12;;;;;;;10.20;3.70;;;;;;;22.43;48.63;100740.34;105475;1258;72706;-74
2023/05/21 05:23:01;;;;;;;9.90;3.90;;;;;;;23.38;46.97;100744.37;105349;1264;59632;-75
2023/05/21 05:25:49;;;;;;;12.80;4.30;;;;;;;24.24;43.87;100746.48;105303;1262;59971;-73
2023/05/21 05:28:39;;;;;;;10.30;3.60;;;;;;;24.98;42.40;100750.44;105296;1259;71656;-75
2023/05/21 05:31:28;;;;;;;9.50;3.90;;;;;;;25.64;40.96;100746.06;105320;1259;67905;-74
2023/05/21 05:34:17;;;;;;;7.30;3.40;;;;;;;26.26;39.70;100744.51;105327;1260;71410;-74
2023/05/21 05:37:05;;;;;;;8.60;3.00;;;;;;;26.81;37.72;100739.09;105501;1259;59704;-74
2023/05/21 05:39:54;;;;;;;7.60;3.10;;;;;;;27.32;35.59;100740.28;105355;1262;59634;-75
2023/05/21 05:42:43;;;;;;;8.20;3.60;;;;;;;27.81;34.72;100738.75;105570;1259;71857;-75
2023/05/21 05:45:34;;;;;;;8.80;2.80;;;;;;;28.32;33.34;100734.63;105408;1262;189243;-73
2023/05/21 05:48:25;;;;;;;8.60;3.20;;;;;;;28.82;32.78;100743.38;105268;1259;72689;-78
2023/05/21 05:51:15;;;;;;;7.20;2.90;;;;;;;29.25;31.74;100745.89;105291;1260;59827;-73
2023/05/21 05:54:04;;;;;;;7.60;3.00;;;;;;;29.57;30.50;100746.10;105417;1260;60226;-73
2023/05/21 05:56:53;;;;;;;7.20;2.60;;;;;;;29.78;30.19;100740.46;105514;1262;73133;-73
2023/05/21 05:59:41;;;;;;;8.20;3.00;;;;;;;30.15;29.16;100741.57;105336;1259;66974;-71
2023/05/21 06:02:31;;;;;;;6.90;2.80;;;;;;;30.55;29.13;100738.34;105587;1254;71438;-72
2023/05/21 06:05:20;;;;;;;8.00;2.80;;;;;;;30.99;28.45;100735.84;105698;1262;59734;-73
2023/05/21 06:08:09;;;;;;;8.30;2.70;;;;;;;31.38;27.72;100736.40;105655;1253;60612;-74
2023/05/21 06:10:57;;;;;;;7.20;2.90;;;;;;;31.45;27.07;100733.69;105677;1262;73507;-75
2023/05/21 06:13:46;;;;;;;7.10;2.70;;;;;;;31.64;27.33;100733.07;105627;1259;66132;-74
2023/05/21 06:16:35;;;;;;;11.30;4.40;;;;;;;31.83;26.48;100727.94;105498;1259;72553;-73
2023/05/21 06:19:24;;;;;;;7.00;2.90;;;;;;;31.81;26.25;100728.39;105770;1254;59830;-73
2023/05/21 06:22:14;;;;;;;8.80;2.90;;;;;;;32.05;26.05;100727.05;105772;1259;59561;-76
2023/05/21 06:25:06;;;;;;;8.00;3.00;;;;;;;32.33;26.04;100726.02;106286;1262;73055;-74
2023/05/21 06:27:53;;;;;;;6.70;2.50;;;;;;;32.43;25.15;100720.27;106679;1254;67999;-74
2023/05/21 06:30:44;;;;;;;7.00;2.50;;;;;;;32.67;24.37;100730.92;106478;1254;71090;-72
2023/05/21 06:33:33;;;;;;;6.80;2.20;;;;;;;32.76;23.42;100728.27;106308;1253;59705;-75
2023/05/21 06:36:22;;;;;;;6.60;2.20;;;;;;;32.87;23.57;100727.00;106226;1253;59574;-74
2023/05/21 06:39:12;;;;;;;6.90;2.50;;;;;;;33.10;23.38;100725.36;106178;1254;72926;-74
2023/05/21 06:42:03;;;;;;;7.40;2.40;;;;;;;33.33;23.05;100722.10;105975;1257;67059;-73
2023/05/21 06:45:13;;;;;;;7.70;2.40;;;;;;;33.54;22.40;100723.65;106000;1259;72398;-77
2023/05/21 06:48:05;;;;;;;7.80;2.40;;;;;;;33.74;22.20;100720.76;105882;1257;59606;-76
2023/05/21 06:50:53;;;;;;;6.30;2.20;;;;;;;33.88;22.05;100718.43;105847;1254;59642;-75
2023/05/21 06:53:42;;;;;;;6.00;2.00;;;;;;;34.06;21.81;100716.09;105833;1254;73314;-73
2023/05/21 06:56:30;;;;;;;7.60;2.40;;;;;;;34.17;21.34;100721.05;105762;1256;67752;-74
2023/05/21 06:59:20;;;;;;;8.00;2.30;;;;;;;34.30;20.92;100719.64;105890;1253;71431;-75
2023/05/21 07:02:09;;;;;;;8.60;2.40;;;;;;;34.40;20.76;100717.44;105925;1253;59700;-76
2023/05/21 07:04:58;;;;;;;8.40;2.50;;;;;;;34.50;21.11;100711.21;105959;1253;60366;-77
2023/05/21 07:07:49;;;;;;;8.20;2.30;;;;;;;34.56;20.76;100712.48;105796;1254;72839;-75
2023/05/21 07:10:37;;;;;;;7.30;2.20;;;;;;;34.89;20.85;100713.23;105728;1259;67911;-75
2023/05/21 07:13:25;;;;;;;6.10;2.00;;;;;;;35.05;20.29;100718.77;105712;1253;72425;-76
2023/05/21 07:16:16;;;;;;;6.20;2.40;;;;;;;35.30;20.49;100711.93;105670;1261;59737;-75
2023/05/21 07:19:07;;;;;;;7.70;2.10;;;;;;;35.70;19.62;100714.54;105754;1254;59500;-76
2023/05/21 07:21:58;;;;;;;7.80;2.00;;;;;;;35.90;19.45;100713.12;105783;1259;71876;-76
2023/05/21 07:24:46;;;;;;;6.50;2.00;;;;;;;36.18;19.46;100708.18;106041;1259;67925;-76
2023/05/21 07:27:35;;;;;;;7.40;2.10;;;;;;;36.53;19.52;100706.27;105819;1262;73746;-76
2023/05/21 07:30:24;;;;;;;6.80;2.30;;;;;;;36.82;19.61;100704.20;105725;1255;59639;-74
2023/05/21 07:33:15;;;;;;;6.40;2.10;;;;;;;36.96;18.75;100704.13;105946;1253;59623;-76
2023/05/21 07:36:05;;;;;;;8.20;2.00;;;;;;;36.60;17.83;100701.45;105624;1257;71752;-76
2023/05/21 07:38:56;;;;;;;7.20;1.80;;;;;;;36.52;18.02;100700.90;105731;1262;67815;-77
2023/05/21 07:41:45;;;;;;;6.40;2.10;;;;;;;36.38;18.09;100698.73;105696;1260;71430;-75
2023/05/21 07:44:35;;;;;;;7.40;2.40;;;;;;;36.28;18.97;100697.06;105598;1268;60382;-74
2023/05/21 07:47:27;;;;;;;8.40;2.50;;;;;;;36.32;19.91;100695.64;105554;1265;59689;-77
2023/05/21 07:50:17;;;;;;;9.00;3.10;;;;;;;36.45;20.50;100697.52;105633;1259;73010;-75
2023/05/21 07:53:05;;;;;;;8.60;3.10;;;;;;;36.60;20.91;100696.63;105649;1260;67890;-76
2023/05/21 07:55:57;;;;;;;8.70;3.00;;;;;;;36.88;20.62;100703.27;105209;1265;72753;-76
2023/05/21 07:58:48;;;;;;;7.50;2.90;;;;;;;37.10;20.30;100705.48;105323;1265;60887;-77
2023/05/21 08:01:39;;;;;;;8.80;3.00;;;;;;;37.14;20.29;100709.30;105001;1266;59693;-76
2023/05/21 08:04:28;;;;;;;11.10;5.50;;;;;;;37.24;20.73;100710.73;105109;1264;73108;-78
2023/05/21 08:07:18;;;;;;;9.60;3.70;;;;;;;37.38;20.51;100705.97;105191;1269;66592;-75
2023/05/21 08:10:07;;;;;;;9.20;3.40;;;;;;;37.19;20.18;100706.89;105254;1263;71096;-75
2023/05/21 08:12:56;;;;;;;8.40;3.30;;;;;;;36.95;19.61;100707.73;105012;1267;59770;-74
2023/05/21 08:15:46;;;;;;;7.60;2.80;;;;;;;36.96;20.30;100707.13;105205;1268;59543;-75
2023/05/21 08:18:35;;;;;;;6.00;2.30;;;;;;;37.16;19.29;100706.63;105211;1262;73206;-74
2023/05/21 08:21:24;;;;;;;8.40;2.90;;;;;;;37.10;19.11;100711.23;105204;1268;69288;-74
2023/05/21 08:24:12;;;;;;;7.70;2.50;;;;;;;37.11;19.28;100709.09;105112;1270;73748;-72
2023/05/21 08:27:00;;;;;;;7.40;2.20;;;;;;;37.07;17.96;100707.27;105417;1254;59726;-74
2023/05/21 08:29:50;;;;;;;7.50;2.50;;;;;;;36.99;18.03;100704.02;105601;1254;59693;-72
2023/05/21 08:32:38;;;;;;;7.00;2.20;;;;;;;36.95;17.77;100699.70;105580;1254;71742;-73
2023/05/21 08:35:27;;;;;;;6.80;2.30;;;;;;;37.11;18.29;100701.38;105800;1254;67652;-73
2023/05/21 08:38:38;;;;;;;9.20;2.40;;;;;;;37.17;18.22;100703.96;105696;1254;71104;-76
2023/05/21 08:41:37;;;;;;;7.80;1.80;;;;;;;37.16;17.76;100703.52;105658;1258;59606;-74
2023/05/21 08:44:27;;;;;;;8.70;2.60;;;;;;;37.04;17.13;100706.27;105621;1259;59914;-72
2023/05/21 08:47:21;;;;;;;8.20;2.40;;;;;;;37.14;17.51;100706.91;105707;1254;73522;-75
2023/05/21 08:50:12;;;;;;;8.70;2.50;;;;;;;37.09;17.56;100704.43;105691;1253;67919;-72
2023/05/21 08:53:01;;;;;;;10.90;2.60;;;;;;;37.26;17.77;100701.55;105554;1260;72640;-74
2023/05/21 08:56:05;;;;;;;7.10;2.20;;;;;;;37.38;17.37;100699.25;105610;1257;59643;-74
2023/05/21 08:59:03;;;;;;;9.40;3.30;;;;;;;37.42;17.18;100701.40;106019;1259;59568;-74
2023/05/21 09:01:56;;;;;;;7.70;2.30;;;;;;;37.29;16.88;100699.90;105838;1257;71751;-76
2023/05/21 09:04:57;;;;;;;7.40;2.20;;;;;;;37.61;16.52;100699.27;106052;1258;68394;-75
2023/05/21 09:08:06;;;;;;;7.90;2.50;;;;;;;37.22;16.56;100698.77;105920;1258;72525;-75
2023/05/21 09:11:09;;;;;;;9.30;2.00;;;;;;;37.26;17.02;100692.02;105795;1259;59730;-74
2023/05/21 09:14:05;;;;;;;9.10;2.10;;;;;;;37.36;17.18;100691.27;105501;1257;59620;-75
2023/05/21 09:17:15;;;;;;;6.80;2.00;;;;;;;37.31;16.30;100695.94;105973;1262;73497;-76
2023/05/21 09:20:09;;;;;;;7.80;2.10;;;;;;;37.26;16.82;100688.48;105416;1262;67783;-75
2023/05/21 09:23:03;;;;;;;7.10;2.00;;;;;;;37.25;16.63;100687.20;105477;1259;72793;-77
2023/05/21 09:25:55;;;;;;;7.50;1.80;;;;;;;36.91;16.69;100688.23;105986;1258;59830;-74
2023/05/21 09:28:49;;;;;;;8.00;2.20;;;;;;;36.84;16.54;100688.91;106592;1259;59547;-77
2023/05/21 09:31:48;;;;;;;8.30;2.00;;;;;;;36.79;16.24;100686.40;106625;1262;73127;-78
2023/05/21 09:34:37;;;;;;;6.50;1.80;;;;;;;36.63;16.54;100684.20;106465;1261;67622;-78
2023/05/21 09:37:31;;;;;;;5.80;1.90;;;;;;;36.53;16.40;100682.01;106014;1260;73901;-79
2023/05/21 09:40:22;;;;;;;7.40;1.80;;;;;;;36.60;17.07;100683.10;105757;1262;60202;-78
2023/05/21 09:43:15;;;;;;;7.10;2.00;;;;;;;36.64;17.23;100681.72;105702;1257;59535;-79
2023/05/21 09:46:06;;;;;;;7.20;2.20;;;;;;;36.74;17.50;100682.41;105749;1260;72796;-80
2023/05/21 09:48:54;;;;;;;7.40;2.00;;;;;;;36.73;17.00;100685.47;105666;1264;66682;-78
2023/05/21 09:51:45;;;;;;;6.40;1.80;;;;;;;36.88;17.26;100687.63;105398;1259;71452;-76
2023/05/21 09:54:36;;;;;;;7.30;2.00;;;;;;;36.51;17.02;100680.30;105518;1262;59668;-80
2023/05/21 09:57:25;;;;;;;7.50;1.80;;;;;;;36.35;17.29;100683.11;105287;1271;59533;-77
2023/05/21 10:00:28;;;;;;;9.00;2.10;;;;;;;36.14;17.72;100681.59;105271;1264;71889;-78
2023/05/21 10:03:16;;;;;;;7.00;1.90;;;;;;;36.09;17.60;100677.59;105400;1270;68914;-77
2023/05/21 10:06:10;;;;;;;8.10;2.00;;;;;;;35.54;17.85;100682.98;105181;1265;71982;-76
2023/05/21 10:09:03;;;;;;;6.90;2.30;;;;;;;35.49;19.05;100684.97;105275;1271;59584;-76
2023/05/21 10:11:53;;;;;;;6.80;2.30;;;;;;;35.83;19.27;100682.48;105197;1265;59866;-76
2023/05/21 10:14:49;;;;;;;7.50;2.30;;;;;;;36.13;19.09;100677.48;105359;1270;71760;-79
2023/05/21 10:17:40;;;;;;;6.80;2.50;;;;;;;36.33;19.29;100680.52;105278;1265;67780;-77
2023/05/21 10:20:29;;;;;;;8.60;2.60;;;;;;;36.28;18.48;100680.67;105587;1262;72783;-77
2023/05/21 10:23:19;;;;;;;7.90;2.00;;;;;;;36.16;18.05;100677.05;105568;1262;59640;-78
2023/05/21 10:26:08;;;;;;;8.00;2.60;;;;;;;36.36;18.51;100682.17;105558;1267;59689;-77
2023/05/21 10:28:58;;;;;;;7.60;2.60;;;;;;;36.35;18.97;100680.91;105705;1259;73508;-80
2023/05/21 10:31:50;;;;;;;7.60;2.20;;;;;;;36.50;18.49;100681.23;106035;1253;68163;-79
2023/05/21 10:34:39;;;;;;;7.10;2.40;;;;;;;36.43;18.67;100679.86;106090;1254;72674;-80
2023/05/21 10:37:28;;;;;;;7.70;2.40;;;;;;;36.45;18.18;100678.91;106124;1260;59653;-78
2023/05/21 10:40:17;;;;;;;7.80;2.60;;;;;;;36.49;18.02;100677.02;105937;1253;59720;-77
2023/05/21 10:43:14;;;;;;;7.10;2.40;;;;;;;36.63;17.92;100679.66;106008;1259;71006;-80
2023/05/21 10:46:38;;;;;;;7.10;2.20;;;;;;;36.89;17.74;100683.02;106140;1253;67664;-77
2023/05/21 10:49:54;;;;;;;8.00;2.30;;;;;;;37.13;17.70;100685.72;106005;1259;72739;-79
2023/05/21 10:53:03;;;;;;;7.10;2.40;;;;;;;37.26;17.95;100678.14;106061;1254;59602;-78
2023/05/21 10:56:25;;;;;;;7.30;2.20;;;;;;;37.35;17.80;100672.62;105905;1260;59832;-79
2023/05/21 10:59:35;;;;;;;6.80;2.20;;;;;;;37.33;17.43;100670.73;105778;1260;73001;-80
2023/05/21 11:02:28;;;;;;;6.40;2.00;;;;;;;37.08;17.58;100668.04;105961;1260;68898;-79
2023/05/21 11:05:33;;;;;;;7.80;2.50;;;;;;;36.96;18.08;100662.98;106152;1253;72837;-82
2023/05/21 11:08:25;;;;;;;6.50;2.40;;;;;;;36.75;17.84;100661.19;105778;1257;59721;-78
2023/05/21 11:11:44;;;;;;;7.60;2.30;;;;;;;36.42;18.53;100654.51;106117;1262;59537;-78
2023/05/21 11:14:35;;;;;;;6.30;2.10;;;;;;;35.39;18.83;100652.77;106544;1253;71701;-78
2023/05/21 11:17:40;;;;;;;6.80;2.20;;;;;;;34.75;19.88;100650.55;105945;1259;66595;-78
2023/05/21 11:20:33;;;;;;;7.50;2.50;;;;;;;34.20;20.54;100649.29;105852;1253;70466;-77
2023/05/21 11:23:22;;;;;;;7.00;2.70;;;;;;;33.74;20.82;100652.83;105892;1253;60088;-77
2023/05/21 11:26:12;;;;;;;8.30;2.90;;;;;;;33.35;21.47;100656.72;105854;1259;59924;-77
2023/05/21 11:29:03;;;;;;;11.60;6.10;;;;;;;32.99;21.80;100649.52;105810;1260;73090;-75
2023/05/21 11:32:04;;;;;;;13.80;9.30;;;;;;;32.74;22.06;100655.25;105974;1253;67103;-74
2023/05/21 11:34:52;;;;;;;8.10;2.70;;;;;;;32.39;22.29;100656.31;106092;1254;71081;-76
2023/05/21 11:37:42;;;;;;;7.30;2.00;;;;;;;32.00;22.97;100652.48;105878;1257;59679;-75
2023/05/21 11:40:31;;;;;;;6.70;2.50;;;;;;;31.36;23.28;100651.94;105730;1262;59621;-75
2023/05/21 11:43:19;;;;;;;8.70;2.50;;;;;;;30.78;23.99;100656.05;105605;1259;73035;-73
2023/05/21 11:46:11;;;;;;;17.80;3.30;;;;;;;30.17;24.33;100651.11;105939;1259;66365;-73
2023/05/21 11:49:00;;;;;;;9.90;3.00;;;;;;;29.44;24.84;100654.65;106016;1256;72475;-75
2023/05/21 11:51:49;;;;;;;7.40;2.60;;;;;;;28.82;25.73;100658.52;105711;1257;59752;-74
2023/05/21 11:54:49;;;;;;;7.10;2.60;;;;;;;28.25;26.46;100656.52;105633;1265;60391;-75
2023/05/21 11:57:43;;;;;;;8.70;2.70;;;;;;;27.86;27.14;100654.42;105662;1260;73132;-75
2023/05/21 12:00:41;;;;;;;9.00;2.60;;;;;;;27.44;26.56;100656.02;105809;1257;66740;-74
2023/05/21 12:03:34;;;;;;;7.60;2.40;;;;;;;27.04;26.93;100652.52;105987;1257;72802;-75
2023/05/21 12:06:30;;;;;;;6.10;1.90;;;;;;;26.77;27.44;100657.48;105586;1257;60123;-75
2023/05/21 12:09:18;;;;;;;7.90;2.30;;;;;;;26.49;26.76;100652.56;105941;1255;60156;-75
2023/05/21 12:12:14;;;;;;;8.20;2.40;;;;;;;26.27;27.57;100652.52;105722;1262;73742;-74
2023/05/21 12:15:03;;;;;;;6.40;2.30;;;;;;;26.09;27.80;100651.83;105724;1260;68383;-73
2023/05/21 12:17:53;;;;;;;8.40;2.30;;;;;;;25.93;27.71;100654.87;105631;1260;73212;-74
2023/05/21 12:20:43;;;;;;;6.10;2.00;;;;;;;25.71;27.68;100654.48;105796;1257;59587;-74
2023/05/21 12:23:32;;;;;;;9.00;2.10;;;;;;;25.57;27.94;100652.34;106031;1260;61005;-74
2023/05/21 12:26:20;;;;;;;8.60;2.30;;;;;;;25.43;28.26;100655.98;106370;1257;72580;-74
2023/05/21 12:29:09;;;;;;;6.80;2.40;;;;;;;25.31;27.76;100653.21;106238;1257;67177;-74
2023/05/21 12:32:03;;;;;;;6.70;2.60;;;;;;;25.24;27.92;100657.36;106322;1260;71453;-75
2023/05/21 12:34:53;;;;;;;8.90;2.40;;;;;;;25.07;28.42;100652.73;106226;1257;59637;-75
2023/05/21 12:37:42;;;;;;;7.60;2.20;;;;;;;24.99;28.19;100659.20;106101;1256;60175;-74
2023/05/21 12:40:36;;;;;;;7.10;2.00;;;;;;;24.95;27.86;100663.69;105809;1260;73137;-71
2023/05/21 12:43:33;;;;;;;8.80;2.20;;;;;;;24.94;27.90;100661.92;105644;1258;67873;-73
2023/05/21 12:46:26;;;;;;;8.20;2.30;;;;;;;24.88;27.84;100658.40;105739;1257;72653;-74
2023/05/21 12:49:35;;;;;;;7.20;2.20;;;;;;;24.89;28.39;100662.10;105779;1260;59640;-73
2023/05/21 12:52:25;;;;;;;7.80;2.30;;;;;;;24.91;27.97;100658.02;106061;1259;59650;-74
2023/05/21 12:55:15;;;;;;;6.70;2.00;;;;;;;24.93;27.68;100659.56;105908;1258;71744;-73
2023/05/21 12:58:06;;;;;;;7.20;2.00;;;;;;;24.92;27.76;100655.30;105669;1258;67909;-72
2023/05/21 13:00:56;;;;;;;8.10;2.10;;;;;;;24.91;27.90;100649.52;105650;1260;72861;-73
2023/05/21 13:03:44;;;;;;;8.90;2.30;;;;;;;24.83;27.09;100652.67;105664;1260;59701;-73
2023/05/21 13:06:42;;;;;;;8.60;2.00;;;;;;;24.72;27.21;100655.21;105735;1254;60226;-74